Sao Jose das Laranjeiras, Brazil
Current Conditions -  °F | °C
As of 7:00 PM on Monday 24 Nov 2014 (Local Time) from SBLO Reporting Station
Broken Clouds Broken Clouds  
Wind Chill: 82°   Ceiling: 10000
Heat Index: 85°   Visibility: 6mi
Dew Point: 68°   Wind: 0mph
Humidity: 62%   Direction: NA
Pressure: 29.85"   Gusts: NA
Location:  22.67°S, 50.86°W
Report Text: SBLO 242100Z 00000KT 9999 FEW030 FEW040TCU BKN100 28/20 Q1011
Loading
Personal Weather Stations






























Interactive Weather Map New forecast layout! Learn more

10-Day Weather Forecast

Advertisements
Track Severe Weather on mobile